Time;durP1;ratioP1;P1;durP2;ratioP2;P2;SDS_P1;SDS_P2;PMS_P1;PMS_P2;Temp;Humidity;BMP_temperature;BMP_pressure;BME280_temperature;BME280_humidity;BME280_pressure;Samples;Min_cycle;Max_cycle;Signal;HPM_P1;HPM_P2
2021/05/04 00:01:42;;;;;;;33.25;18.05;;;;;;;3.78;65.16;100314.03;2160045;81;27618;-59
2021/05/04 00:04:45;;;;;;;31.10;17.00;;;;;;;3.75;65.13;100304.81;2183888;80;28828;-58
2021/05/04 00:07:47;;;;;;;32.08;16.32;;;;;;;3.71;65.12;100296.54;2204839;80;32492;-59
2021/05/04 00:10:49;;;;;;;32.03;16.50;;;;;;;3.69;65.19;100299.20;2175158;81;33131;-59
2021/05/04 00:13:51;;;;;;;38.20;16.82;;;;;;;3.67;65.24;100293.53;2216798;80;28869;-62
2021/05/04 00:16:54;;;;;;;30.12;15.65;;;;;;;3.63;65.30;100300.20;2176253;81;27905;-65
2021/05/04 00:19:56;;;;;;;30.50;15.08;;;;;;;3.61;65.31;100295.86;2176082;80;28830;-64
2021/05/04 00:22:58;;;;;;;29.10;15.78;;;;;;;3.57;65.31;100304.30;2143345;80;32146;-63
2021/05/04 00:26:01;;;;;;;25.72;14.78;;;;;;;3.53;65.42;100296.45;2140710;83;33140;-64
2021/05/04 00:29:03;;;;;;;27.98;14.10;;;;;;;3.48;65.55;100292.12;2140747;82;29830;-62
2021/05/04 00:32:06;;;;;;;26.20;13.22;;;;;;;3.43;65.57;100290.47;2195943;80;27706;-65
2021/05/04 00:35:10;;;;;;;26.80;12.82;;;;;;;3.40;65.75;100287.87;2152537;80;28789;-65
2021/05/04 00:38:12;;;;;;;27.80;13.58;;;;;;;3.39;65.78;100287.02;2184887;80;30439;-66
2021/05/04 00:41:14;;;;;;;27.58;14.03;;;;;;;3.40;65.79;100288.77;2212274;80;33102;-63
2021/05/04 00:44:17;;;;;;;26.93;15.18;;;;;;;3.42;66.03;100278.13;2212335;80;29275;-65
2021/05/04 00:47:19;;;;;;;27.15;14.55;;;;;;;3.43;65.98;100276.80;2189644;78;27670;-61
2021/05/04 00:50:21;;;;;;;33.60;17.80;;;;;;;3.44;66.16;100274.57;2178169;81;28830;-65
2021/05/04 00:53:24;;;;;;;29.77;14.55;;;;;;;3.44;66.23;100276.33;2178110;81;31142;-65
2021/05/04 00:56:26;;;;;;;29.25;13.55;;;;;;;3.40;66.24;100262.72;2188476;79;33109;-66
2021/05/04 00:59:29;;;;;;;26.00;13.58;;;;;;;3.39;66.32;100268.95;2188808;81;28753;-66
2021/05/04 01:02:33;;;;;;;27.17;13.95;;;;;;;3.34;66.27;100264.61;2188291;81;27698;-66
2021/05/04 01:05:35;;;;;;;26.25;13.58;;;;;;;3.30;66.13;100262.07;2188940;81;28800;-66
2021/05/04 01:08:37;;;;;;;35.45;20.20;;;;;;;3.24;66.35;100261.71;2189372;79;31312;-65
2021/05/04 01:11:41;;;;;;;34.73;18.10;;;;;;;3.19;66.39;100262.28;2188800;81;34233;-66
2021/05/04 01:14:44;;;;;;;26.95;14.98;;;;;;;3.15;66.49;100256.62;2188954;81;28851;-65
2021/05/04 01:17:46;;;;;;;28.87;15.28;;;;;;;3.10;66.58;100261.12;2188881;81;27649;-65
2021/05/04 01:20:51;;;;;;;24.60;13.55;;;;;;;3.03;66.63;100257.72;2224793;79;28751;-66
2021/05/04 01:23:53;;;;;;;29.30;12.70;;;;;;;2.98;66.78;100256.95;2267529;78;31132;-66
2021/05/04 01:26:58;;;;;;;27.55;12.40;;;;;;;2.95;66.86;100248.61;2227736;79;33129;-61
2021/05/04 01:29:59;;;;;;;21.50;10.93;;;;;;;2.94;66.87;100240.71;2258443;78;28859;-65
2021/05/04 01:33:02;;;;;;;19.23;10.65;;;;;;;2.94;66.90;100238.06;2227880;79;27554;-63
2021/05/04 01:36:05;;;;;;;21.62;11.48;;;;;;;2.94;67.00;100223.52;2268335;78;29744;-65
2021/05/04 01:39:10;;;;;;;18.35;10.93;;;;;;;2.93;67.13;100225.27;2198207;79;32132;-65
2021/05/04 01:42:14;;;;;;;22.13;11.97;;;;;;;2.94;67.16;100215.58;2227912;79;35443;-66
2021/05/04 01:45:17;;;;;;;21.95;11.85;;;;;;;2.94;67.33;100211.14;2209545;79;28829;-63
2021/05/04 01:48:20;;;;;;;20.17;11.70;;;;;;;2.93;67.43;100204.56;2223105;79;27679;-61
2021/05/04 01:51:24;;;;;;;19.50;10.85;;;;;;;2.91;67.37;100204.58;2184087;81;28831;-64
2021/05/04 01:54:27;;;;;;;19.00;10.95;;;;;;;2.88;67.45;100203.34;2187420;79;33506;-65
2021/05/04 01:57:30;;;;;;;18.60;10.05;;;;;;;2.83;67.41;100195.47;2244412;78;32987;-65
2021/05/04 02:00:32;;;;;;;17.45;9.88;;;;;;;2.81;67.42;100187.16;2216633;80;28843;-66
2021/05/04 02:03:35;;;;;;;12.40;8.83;;;;;;;2.79;67.43;100182.34;2175235;81;27680;-66
2021/05/04 02:06:37;;;;;;;13.83;7.95;;;;;;;2.75;67.53;100174.92;2196294;80;29389;-67
2021/05/04 02:09:42;;;;;;;15.00;8.13;;;;;;;2.70;67.51;100166.19;2138051;83;32138;-66
2021/05/04 02:12:44;;;;;;;15.80;7.97;;;;;;;2.68;67.77;100170.63;2179156;80;33101;-66
2021/05/04 02:15:47;;;;;;;14.10;7.90;;;;;;;2.70;67.87;100162.23;2175585;81;29088;-66
2021/05/04 02:18:49;;;;;;;14.38;7.92;;;;;;;2.76;67.85;100157.26;2216795;80;27615;-66
2021/05/04 02:21:52;;;;;;;11.93;7.20;;;;;;;2.82;67.95;100153.19;2216719;80;28800;-66
2021/05/04 02:24:54;;;;;;;11.75;7.05;;;;;;;2.87;67.98;100149.53;2182867;80;31231;-67
2021/05/04 02:27:56;;;;;;;16.70;8.13;;;;;;;2.93;67.97;100146.35;2150095;81;33171;-64
2021/05/04 02:30:58;;;;;;;14.73;7.67;;;;;;;2.97;67.95;100152.87;2177454;81;28869;-67
2021/05/04 02:34:00;;;;;;;14.90;8.20;;;;;;;3.02;67.99;100143.50;2177571;81;27654;-64
2021/05/04 02:37:03;;;;;;;16.05;7.70;;;;;;;3.06;67.92;100137.25;2172393;81;28644;-67
2021/05/04 02:40:06;;;;;;;12.80;7.67;;;;;;;3.09;67.92;100133.22;2179810;80;32045;-66
2021/05/04 02:43:09;;;;;;;15.65;8.70;;;;;;;3.12;67.85;100129.63;2177904;81;32885;-66
2021/05/04 02:46:11;;;;;;;13.20;8.05;;;;;;;3.14;67.79;100127.38;2203831;80;28854;-64
2021/05/04 02:49:13;;;;;;;12.00;7.60;;;;;;;3.16;67.92;100127.34;2173688;81;27583;-65
2021/05/04 02:52:16;;;;;;;15.60;8.88;;;;;;;3.16;67.85;100122.05;2161677;80;29694;-66
2021/05/04 02:55:18;;;;;;;14.85;7.53;;;;;;;3.17;67.88;100120.67;2193891;80;31579;-67
2021/05/04 02:58:21;;;;;;;15.35;8.33;;;;;;;3.19;67.85;100120.19;2197507;80;33184;-67
2021/05/04 03:01:23;;;;;;;15.88;8.35;;;;;;;3.22;67.88;100113.09;2200025;78;28865;-65
2021/05/04 03:04:26;;;;;;;14.20;8.78;;;;;;;3.23;67.85;100101.59;2183320;80;28163;-65
2021/05/04 03:07:29;;;;;;;14.00;8.53;;;;;;;3.24;67.85;100101.55;2215394;80;29596;-64
2021/05/04 03:10:32;;;;;;;15.05;8.35;;;;;;;3.29;67.84;100091.73;2175968;81;32609;-64
2021/05/04 03:13:34;;;;;;;16.97;8.65;;;;;;;3.35;67.78;100093.37;2214331;80;33109;-64
2021/05/04 03:16:36;;;;;;;16.77;8.58;;;;;;;3.42;67.72;100083.06;2175970;81;29906;-65
2021/05/04 03:19:39;;;;;;;12.05;8.13;;;;;;;3.48;67.67;100088.19;2216709;80;27607;-68
2021/05/04 03:22:42;;;;;;;14.25;8.65;;;;;;;3.55;67.55;100089.38;2167112;81;28696;-64
2021/05/04 03:25:44;;;;;;;16.52;8.73;;;;;;;3.61;67.50;100080.83;2216306;80;32129;-62
2021/05/04 03:28:47;;;;;;;15.10;9.03;;;;;;;3.66;67.42;100075.41;2163372;81;33723;-66
2021/05/04 03:31:51;;;;;;;13.75;8.00;;;;;;;3.69;67.27;100068.72;2177989;81;29401;-65
2021/05/04 03:34:53;;;;;;;13.68;8.15;;;;;;;3.73;67.21;100065.53;2139186;83;27682;-65
2021/05/04 03:37:56;;;;;;;17.57;8.30;;;;;;;3.77;67.27;100060.58;2179574;80;28816;-59
2021/05/04 03:40:58;;;;;;;17.82;8.33;;;;;;;3.80;67.10;100057.85;2178171;81;31160;-67
2021/05/04 03:44:00;;;;;;;14.63;9.33;;;;;;;3.85;67.03;100061.70;2178328;80;33555;-63
2021/05/04 03:47:03;;;;;;;14.63;8.38;;;;;;;3.91;67.09;100056.25;2175555;81;29081;-67
2021/05/04 03:53:31;;;;;;;15.85;8.25;;;;;;;4.02;66.90;100046.70;2028890;87;29770;-64
2021/05/04 03:56:34;;;;;;;17.00;7.83;;;;;;;4.08;66.88;100042.10;2062114;86;31096;-67
2021/05/04 03:59:36;;;;;;;10.95;7.42;;;;;;;4.16;66.80;100044.54;2077674;84;33127;-64
2021/05/04 04:02:40;;;;;;;13.25;7.58;;;;;;;4.24;66.74;100033.72;2088687;83;29178;-66
2021/05/04 04:05:42;;;;;;;14.75;7.08;;;;;;;4.31;66.61;100029.11;2061904;86;28329;-66
2021/05/04 04:08:46;;;;;;;14.75;7.17;;;;;;;4.39;66.57;100029.31;2079543;84;28013;-65
2021/05/04 04:11:49;;;;;;;11.50;6.00;;;;;;;4.50;66.56;100032.09;2061204;84;32369;-65
2021/05/04 04:18:08;;;;;;;11.63;7.23;;;;;;;4.82;66.17;100030.27;2330682;76;27626;-59
2021/05/04 04:21:10;;;;;;;12.47;7.62;;;;;;;4.90;66.09;100028.27;2261422;78;27665;-59
2021/05/04 04:24:13;;;;;;;17.62;7.15;;;;;;;5.05;66.15;100024.25;2261891;78;30135;-59
2021/05/04 04:27:15;;;;;;;12.53;6.10;;;;;;;5.20;65.97;100023.39;2280388;77;31901;-58
2021/05/04 04:30:19;;;;;;;12.53;6.80;;;;;;;5.33;65.58;100018.94;2281645;77;33180;-59
2021/05/04 04:33:25;;;;;;;8.95;6.50;;;;;;;5.51;65.74;100015.74;2261803;77;29435;-60
2021/05/04 04:36:28;;;;;;;11.12;6.37;;;;;;;5.71;65.57;100006.61;2262089;78;27697;-60
2021/05/04 04:39:30;;;;;;;11.12;6.05;;;;;;;5.99;65.47;100004.78;2267491;77;28879;-59
2021/05/04 04:42:32;;;;;;;10.05;6.22;;;;;;;6.22;65.36;100000.00;2262052;77;31147;-60
2021/05/04 04:45:34;;;;;;;10.43;6.45;;;;;;;6.44;64.53;99990.78;2261676;78;33062;-59
2021/05/04 04:48:37;;;;;;;10.65;6.45;;;;;;;6.62;64.55;99993.20;2282757;77;31144;-60
2021/05/04 04:51:39;;;;;;;29.60;15.78;;;;;;;6.84;64.83;99990.56;2267507;77;27828;-63
2021/05/04 04:54:42;;;;;;;13.45;7.28;;;;;;;7.18;64.32;99980.82;2302215;77;28828;-59
2021/05/04 04:57:44;;;;;;;10.50;6.65;;;;;;;7.48;64.41;99973.81;2293875;77;31254;-60
2021/05/04 05:00:47;;;;;;;9.03;6.08;;;;;;;7.94;64.07;99966.97;2272882;77;33104;-64
2021/05/04 05:03:49;;;;;;;12.05;5.62;;;;;;;8.38;63.20;99961.42;2262194;77;31201;-63
2021/05/04 05:06:52;;;;;;;12.93;7.25;;;;;;;8.69;61.86;99957.83;2289187;77;27651;-63
2021/05/04 05:09:54;;;;;;;11.95;5.87;;;;;;;8.94;61.71;99949.02;2294253;77;29467;-66
2021/05/04 05:12:56;;;;;;;7.97;5.95;;;;;;;9.53;62.43;99945.25;2261744;78;31201;-62
2021/05/04 05:15:59;;;;;;;10.98;8.45;;;;;;;10.16;61.08;99930.41;2263049;77;33055;-60
2021/05/04 05:19:01;;;;;;;11.43;6.28;;;;;;;10.70;60.59;99927.47;2274168;77;29454;-60
2021/05/04 05:22:04;;;;;;;7.47;5.35;;;;;;;11.23;59.23;99926.67;2303454;77;27756;-60
2021/05/04 05:25:08;;;;;;;9.98;4.25;;;;;;;11.48;58.80;99921.22;2270337;77;29690;-61
2021/05/04 05:28:10;;;;;;;7.00;4.83;;;;;;;11.76;58.63;99919.55;2272042;77;31060;-62
2021/05/04 05:31:13;;;;;;;8.48;4.92;;;;;;;11.99;56.96;99903.89;2288813;77;33121;-60
2021/05/04 05:34:16;;;;;;;7.78;4.70;;;;;;;12.07;56.16;99894.02;2302509;77;29270;-60
2021/05/04 05:37:18;;;;;;;7.90;4.35;;;;;;;12.12;56.03;99891.89;2301794;77;27608;-61
2021/05/04 05:40:21;;;;;;;7.60;4.75;;;;;;;12.27;55.58;99883.35;2302758;77;29220;-85
2021/05/04 05:43:24;;;;;;;9.10;5.95;;;;;;;12.49;55.53;99876.12;2302962;77;31188;-73
2021/05/04 05:46:30;;;;;;;7.50;5.62;;;;;;;12.78;54.81;99872.50;2293021;77;34041;-67
2021/05/04 05:49:31;;;;;;;5.97;3.30;;;;;;;13.05;54.36;99873.34;2262764;77;29727;-67
2021/05/04 05:52:33;;;;;;;6.25;4.17;;;;;;;13.46;53.95;99862.61;2261062;78;27676;-60
2021/05/04 05:55:35;;;;;;;6.10;3.70;;;;;;;13.89;53.40;99851.52;2297959;77;28805;-63
2021/05/04 05:58:38;;;;;;;7.78;4.17;;;;;;;14.38;52.65;99847.14;2299937;77;31191;-64
2021/05/04 06:01:40;;;;;;;6.70;3.92;;;;;;;14.71;52.02;99842.09;2297601;77;33162;-60
2021/05/04 06:04:44;;;;;;;6.65;4.37;;;;;;;15.02;52.11;99834.38;2260402;78;30079;-59
2021/05/04 06:07:46;;;;;;;6.90;4.28;;;;;;;15.19;50.50;99831.26;2244282;77;27611;-63
2021/05/04 06:10:49;;;;;;;6.50;3.95;;;;;;;15.27;49.97;99820.38;2232632;79;28875;-69
2021/05/04 06:13:51;;;;;;;6.10;4.15;;;;;;;15.40;49.21;99818.44;2258726;77;31172;-61
2021/05/04 06:16:53;;;;;;;7.10;4.08;;;;;;;15.39;49.08;99809.97;2258648;78;33102;-71
2021/05/04 06:19:56;;;;;;;7.65;4.47;;;;;;;15.50;49.02;99813.19;2279733;77;28866;-69
2021/05/04 06:22:58;;;;;;;6.03;4.12;;;;;;;15.60;48.44;99799.83;2294540;77;27837;-62
2021/05/04 06:26:01;;;;;;;10.80;6.20;;;;;;;16.00;49.33;99795.31;2294857;77;29371;-66
2021/05/04 06:29:05;;;;;;;9.53;4.87;;;;;;;16.39;47.95;99787.64;2257052;77;31126;-63
2021/05/04 06:32:13;;;;;;;14.00;10.08;;;;;;;16.78;47.98;99776.84;2283746;77;33266;-65
2021/05/04 06:35:20;;;;;;;6.12;4.40;;;;;;;17.26;47.28;99769.61;2291147;77;30097;-64
2021/05/04 06:38:22;;;;;;;4.58;3.92;;;;;;;17.68;46.09;99765.99;2255590;77;27713;-61
2021/05/04 06:41:24;;;;;;;8.28;4.80;;;;;;;17.94;46.04;99764.16;2254881;78;31091;-63
2021/05/04 06:44:27;;;;;;;7.53;4.53;;;;;;;18.05;44.29;99751.88;2255874;77;31844;-61
2021/05/04 06:47:30;;;;;;;8.55;4.25;;;;;;;18.16;44.06;99746.84;2276379;77;34026;-62
2021/05/04 06:50:34;;;;;;;7.85;4.70;;;;;;;18.26;44.70;99752.80;2287714;77;29865;-62
2021/05/04 06:53:36;;;;;;;12.33;5.23;;;;;;;18.55;44.92;99747.91;2255164;78;28219;-63
2021/05/04 06:56:39;;;;;;;7.78;4.53;;;;;;;18.82;44.90;99748.56;2254863;77;28848;-61
2021/05/04 06:59:41;;;;;;;9.50;5.03;;;;;;;19.23;42.72;99737.54;2261427;77;31615;-62
2021/05/04 07:02:43;;;;;;;8.40;4.90;;;;;;;19.39;44.01;99735.55;2254066;78;33998;-62
2021/05/04 07:05:46;;;;;;;5.30;4.42;;;;;;;19.58;41.84;99730.58;2254379;78;28847;-62
2021/05/04 07:08:48;;;;;;;5.72;4.10;;;;;;;19.63;42.21;99733.69;2254947;78;27713;-61
2021/05/04 07:11:52;;;;;;;6.00;4.37;;;;;;;19.69;42.72;99728.19;2255199;77;28879;-62
2021/05/04 07:14:54;;;;;;;6.50;5.17;;;;;;;19.73;40.41;99716.86;2255158;78;32024;-62
2021/05/04 07:17:57;;;;;;;5.45;4.20;;;;;;;19.72;40.85;99713.78;2258382;78;33181;-65
2021/05/04 07:21:03;;;;;;;6.55;4.53;;;;;;;19.83;41.03;99712.73;2277561;77;28864;-61
2021/05/04 07:24:04;;;;;;;5.03;4.28;;;;;;;19.97;40.75;99716.82;2302459;77;27630;-65
2021/05/04 07:27:07;;;;;;;6.35;4.60;;;;;;;20.19;41.36;99717.41;2301468;77;28793;-61
2021/05/04 07:30:10;;;;;;;5.60;4.03;;;;;;;20.56;40.62;99710.13;2302477;77;31578;-65
2021/05/04 07:33:13;;;;;;;6.33;4.70;;;;;;;20.70;40.43;99704.65;2265570;77;33111;-61
2021/05/04 07:36:15;;;;;;;4.72;4.22;;;;;;;20.88;40.27;99693.27;2286801;77;28855;-60
2021/05/04 07:39:18;;;;;;;7.17;5.05;;;;;;;21.15;40.57;99689.20;2283786;77;27666;-65
2021/05/04 07:42:20;;;;;;;7.67;5.35;;;;;;;21.28;39.71;99692.34;2260715;78;31144;-62
2021/05/04 07:45:24;;;;;;;6.90;4.78;;;;;;;21.24;39.44;99682.77;2261023;77;31183;-62
2021/05/04 07:48:26;;;;;;;8.77;5.57;;;;;;;21.22;38.76;99686.16;2261368;77;33124;-61
2021/05/04 07:51:31;;;;;;;6.97;4.90;;;;;;;21.39;39.13;99673.50;2260709;78;29872;-61
2021/05/04 07:54:36;;;;;;;6.35;4.47;;;;;;;21.59;38.83;99665.93;2261131;77;28182;-64
2021/05/04 07:57:38;;;;;;;5.67;4.20;;;;;;;21.86;37.84;99662.64;2260980;78;28812;-59
2021/05/04 08:00:41;;;;;;;7.10;4.50;;;;;;;21.93;37.69;99649.19;2242235;77;31125;-63
2021/05/04 08:03:44;;;;;;;4.10;3.70;;;;;;;21.95;37.73;99648.52;2285505;77;33103;-61
2021/05/04 08:06:47;;;;;;;6.37;4.37;;;;;;;21.86;36.52;99650.37;2302299;77;29772;-63
2021/05/04 08:09:49;;;;;;;8.50;4.80;;;;;;;21.66;36.87;99652.53;2302493;77;27735;-63
2021/05/04 08:12:52;;;;;;;4.78;4.10;;;;;;;21.48;35.57;99645.78;2297651;77;29779;-63
2021/05/04 08:15:54;;;;;;;5.33;4.12;;;;;;;21.31;36.35;99631.21;2287766;77;31125;-63
2021/05/04 08:18:57;;;;;;;4.30;3.90;;;;;;;21.18;36.32;99632.52;2301311;77;33980;-62
2021/05/04 08:21:59;;;;;;;5.20;4.42;;;;;;;21.02;35.97;99625.62;2302277;77;28850;-62
2021/05/04 08:25:04;;;;;;;7.40;5.22;;;;;;;20.78;36.36;99620.34;2300336;77;27735;-65
2021/05/04 08:28:06;;;;;;;7.00;3.95;;;;;;;20.69;36.18;99623.48;2272540;77;29699;-61
2021/05/04 08:31:09;;;;;;;4.53;3.92;;;;;;;20.57;35.32;99613.87;2261126;77;31132;-65
2021/05/04 08:34:11;;;;;;;3.87;3.42;;;;;;;20.35;34.72;99607.94;2263220;77;33127;-62
2021/05/04 08:37:13;;;;;;;6.87;4.28;;;;;;;20.13;35.79;99607.39;2231379;78;29304;-62
2021/05/04 08:40:16;;;;;;;4.37;3.60;;;;;;;20.26;35.93;99597.97;2260728;78;27707;-62
2021/05/04 08:43:22;;;;;;;6.53;4.00;;;;;;;20.27;35.63;99594.24;2276217;77;28869;-62
2021/05/04 08:46:25;;;;;;;5.30;3.30;;;;;;;20.47;35.70;99593.06;2293908;77;31295;-66
2021/05/04 08:49:28;;;;;;;3.87;3.05;;;;;;;20.65;34.91;99580.77;2260884;78;33018;-62
2021/05/04 08:52:30;;;;;;;6.78;3.65;;;;;;;20.77;34.85;99576.44;2260331;78;28203;-66
2021/05/04 08:55:33;;;;;;;3.42;3.12;;;;;;;20.97;34.74;99566.69;2261126;77;27692;-63
2021/05/04 08:58:36;;;;;;;4.62;3.05;;;;;;;20.99;33.62;99559.22;2263088;77;28892;-66
2021/05/04 09:01:40;;;;;;;4.35;3.47;;;;;;;21.01;34.19;99554.47;2271012;77;31137;-65
2021/05/04 09:04:47;;;;;;;6.37;4.03;;;;;;;20.95;33.47;99545.08;2298949;77;33971;-68
2021/05/04 09:07:47;;;;;;;5.28;3.50;;;;;;;20.97;33.77;99542.18;2301666;77;29828;-66
2021/05/04 09:10:52;;;;;;;6.12;3.15;;;;;;;21.18;33.90;99540.43;2302638;77;27584;-66
2021/05/04 09:17:19;;;;;;;4.30;3.40;;;;;;;21.50;32.64;99523.32;2302641;77;31542;-67
2021/05/04 09:20:28;;;;;;;6.50;3.50;;;;;;;21.47;31.74;99511.38;2302365;77;33610;-67
2021/05/04 09:23:27;;;;;;;4.10;3.70;;;;;;;21.31;32.70;99519.51;2295357;77;30107;-64
2021/05/04 09:26:35;;;;;;;4.93;2.70;;;;;;;21.12;32.97;99507.03;2261518;78;27697;-65
2021/05/04 09:29:44;;;;;;;5.10;3.40;;;;;;;21.07;32.92;99505.64;2261185;78;29704;-65
2021/05/04 09:32:47;;;;;;;4.30;3.87;;;;;;;21.02;33.13;99503.07;2261148;78;32020;-67
2021/05/04 09:35:50;;;;;;;5.62;3.35;;;;;;;20.87;33.10;99497.37;2263452;77;33120;-66
2021/05/04 09:38:52;;;;;;;4.12;2.83;;;;;;;20.73;32.11;99487.94;2260370;78;29159;-67
2021/05/04 09:41:58;;;;;;;3.50;3.20;;;;;;;20.58;32.85;99476.80;2261084;78;27633;-65
2021/05/04 09:45:00;;;;;;;5.30;3.42;;;;;;;20.41;32.94;99468.53;2283088;77;28859;-64
2021/05/04 09:48:31;;;;;;;4.15;2.95;;;;;;;20.17;33.33;99470.59;2302571;77;31546;-62
2021/05/04 09:51:33;;;;;;;5.20;3.15;;;;;;;20.08;33.11;99461.52;2302384;77;35448;-65
2021/05/04 09:54:35;;;;;;;4.08;3.67;;;;;;;19.86;33.03;99452.81;2296829;77;30124;-65
2021/05/04 09:57:49;;;;;;;4.62;3.10;;;;;;;19.81;32.77;99432.55;2302387;77;27762;-61
2021/05/04 10:00:51;;;;;;;3.72;2.35;;;;;;;19.68;32.33;99437.06;2302127;77;28937;-65
2021/05/04 10:03:53;;;;;;;5.10;3.12;;;;;;;19.58;32.53;99420.84;2302715;77;31534;-66
2021/05/04 10:06:56;;;;;;;4.37;3.25;;;;;;;19.52;32.61;99421.45;2302784;77;33111;-67
2021/05/04 10:10:01;;;;;;;8.90;3.85;;;;;;;19.38;32.33;99420.13;2300395;77;30213;-64
2021/05/04 10:13:03;;;;;;;;;;;;;;;19.26;33.18;99404.07;2305519;77;27589;-64
2021/05/04 10:16:07;;;;;;;5.72;3.40;;;;;;;19.37;32.98;99398.05;2302720;77;28811;-66
2021/05/04 10:19:09;;;;;;;5.50;3.60;;;;;;;19.47;33.71;99400.68;2305587;77;31268;-65
2021/05/04 10:22:13;;;;;;;4.80;4.08;;;;;;;19.49;32.67;99380.52;2287822;77;33532;-66
2021/05/04 10:25:19;;;;;;;6.05;4.12;;;;;;;19.51;33.67;99375.79;2264947;78;29163;-65
2021/05/04 10:28:22;;;;;;;5.62;3.92;;;;;;;19.63;33.31;99376.89;2265381;77;27689;-65
2021/05/04 10:31:43;;;;;;;7.70;4.10;;;;;;;19.69;33.07;99366.23;2266465;77;28864;-63
2021/05/04 10:34:43;;;;;;;3.67;3.25;;;;;;;19.80;33.55;99366.48;2306192;77;31117;-66
2021/05/04 10:37:58;;;;;;;10.93;4.25;;;;;;;19.83;32.71;99363.45;2306714;77;33227;-66
2021/05/04 10:41:08;;;;;;;11.33;4.03;;;;;;;19.82;33.67;99354.95;2306990;77;29203;-66
2021/05/04 10:44:12;;;;;;;9.15;4.72;;;;;;;19.80;33.91;99352.90;2267737;77;27766;-66
2021/05/04 10:47:36;;;;;;;7.67;4.08;;;;;;;19.76;33.78;99349.31;2265095;78;29790;-66
2021/05/04 10:50:55;;;;;;;7.87;4.97;;;;;;;19.74;34.04;99341.30;2265191;78;31574;-65
2021/05/04 10:54:03;;;;;;;12.28;4.03;;;;;;;19.84;33.99;99327.60;2265047;78;33121;-65
2021/05/04 10:57:05;;;;;;;3.92;3.52;;;;;;;19.81;33.86;99328.78;2267224;77;29566;-64
2021/05/04 11:00:09;;;;;;;7.35;3.50;;;;;;;19.81;33.59;99309.76;2265084;78;27698;-66
2021/05/04 11:03:33;;;;;;;11.00;4.30;;;;;;;19.79;33.87;99302.77;2265186;78;28823;-65
2021/05/04 11:06:42;;;;;;;5.60;4.00;;;;;;;19.76;34.01;99301.23;2273970;77;32088;-67
2021/05/04 11:09:50;;;;;;;13.62;6.17;;;;;;;19.81;34.70;99295.30;2303540;77;33940;-65
2021/05/04 11:12:55;;;;;;;5.00;3.83;;;;;;;19.82;34.39;99288.86;2299709;77;29168;-66
2021/05/04 11:16:35;;;;;;;5.00;3.95;;;;;;;19.94;34.89;99284.03;2306760;77;27677;-66
2021/05/04 11:19:41;;;;;;;4.30;3.77;;;;;;;20.09;34.83;99277.48;2285739;77;28143;-65
2021/05/04 11:22:44;;;;;;;7.37;3.80;;;;;;;20.15;34.25;99261.86;2275055;77;32067;-64
2021/05/04 11:25:46;;;;;;;4.60;3.60;;;;;;;20.06;34.77;99258.78;2306520;77;31866;-65
2021/05/04 11:29:08;;;;;;;5.28;2.45;;;;;;;20.07;34.89;99255.88;2289255;77;29167;-64
2021/05/04 11:32:18;;;;;;;9.63;3.70;;;;;;;20.16;34.20;99248.61;2295379;77;28148;-64
2021/05/04 11:35:24;;;;;;;7.50;4.00;;;;;;;20.18;35.17;99250.66;2287609;77;28974;-64
2021/05/04 11:38:29;;;;;;;4.80;4.22;;;;;;;20.18;33.79;99236.57;2237499;77;30734;-63
2021/05/04 11:41:32;;;;;;;6.65;3.95;;;;;;;20.22;35.11;99225.33;2306427;77;33124;-63
2021/05/04 11:44:34;;;;;;;8.13;3.75;;;;;;;20.39;35.39;99224.36;2305877;77;29157;-62
2021/05/04 11:47:42;;;;;;;9.73;4.15;;;;;;;20.56;35.45;99217.09;2283666;77;27567;-62
2021/05/04 11:50:48;;;;;;;4.87;4.33;;;;;;;20.52;34.64;99218.45;2302281;77;28954;-64
2021/05/04 11:53:52;;;;;;;4.30;3.58;;;;;;;20.48;34.71;99212.50;2306144;77;31997;-62
2021/05/04 11:56:54;;;;;;;9.15;3.30;;;;;;;20.42;34.88;99206.88;2306178;77;32371;-62
2021/05/04 11:59:57;;;;;;;4.47;3.15;;;;;;;20.38;34.94;99196.81;2306595;77;29224;-61
2021/05/04 12:03:08;;;;;;;8.98;5.12;;;;;;;20.30;35.19;99197.66;2306814;77;27585;-61
2021/05/04 12:06:11;;;;;;;8.45;3.08;;;;;;;20.39;35.62;99187.64;2272465;77;28806;-63
2021/05/04 12:09:15;;;;;;;8.00;3.85;;;;;;;20.50;35.39;99174.23;2268004;77;31104;-62
2021/05/04 12:12:19;;;;;;;5.35;2.98;;;;;;;20.62;36.27;99170.67;2271353;77;33177;-62
2021/05/04 12:15:28;;;;;;;4.03;3.35;;;;;;;20.80;35.66;99167.80;2306348;77;29151;-63
2021/05/04 12:21:53;;;;;;;4.55;3.52;;;;;;;21.02;35.01;99149.08;2248416;78;27757;-63
2021/05/04 12:24:57;;;;;;;4.50;3.15;;;;;;;21.07;35.64;99158.95;2228507;79;28157;-63
2021/05/04 12:28:01;;;;;;;5.05;3.40;;;;;;;21.21;35.34;99154.64;2227794;79;28875;-62
2021/05/04 12:34:38;;;;;;;5.55;4.00;;;;;;;21.54;34.99;99150.46;2294938;76;27813;-60
2021/05/04 12:37:48;;;;;;;5.72;4.40;;;;;;;21.43;35.05;99138.59;2228345;78;27715;-63
2021/05/04 12:41:18;;;;;;;5.22;3.55;;;;;;;21.44;35.21;99141.65;2243115;77;28808;-60
2021/05/04 12:44:46;;;;;;;6.97;2.98;;;;;;;21.35;34.60;99134.02;2359944;74;27891;-60
2021/05/04 12:47:55;;;;;;;2.77;1.60;;;;;;;21.24;35.29;99140.69;2209636;79;28152;-61
2021/05/04 12:54:45;;;;;;;2.27;1.50;;;;;;;20.93;32.93;99120.48;2330851;75;27840;-60
2021/05/04 13:02:15;;;;;;;;;;;;;;;;;;;;;
2021/05/04 13:05:32;;;;;;;4.83;1.75;;;;;;;20.72;32.36;99133.77;2321061;75;28242;-61
2021/05/04 13:16:36;;;;;;;2.20;1.47;;;;;;;20.15;31.64;99121.33;2219407;78;27907;-60
2021/05/04 13:34:33;;;;;;;3.70;1.52;;;;;;;19.33;32.15;99113.71;2265390;77;27915;-61
2021/05/04 13:47:28;;;;;;;12.63;5.28;;;;;;;19.11;32.94;99106.46;2164617;80;27812;-62
2021/05/04 13:48:17;;;;;;;9.08;3.30;;;;;;;19.05;32.49;99103.55;2205284;80;29698;-61
2021/05/04 13:52:01;;;;;;;4.67;2.60;;;;;;;18.93;32.28;99103.80;2205102;80;31928;-62
2021/05/04 13:59:13;;;;;;;6.50;1.92;;;;;;;18.87;32.92;99089.49;2398073;74;27889;-59
2021/05/04 14:24:37;;;;;;;5.75;2.22;;;;;;;18.69;32.96;99066.50;2279507;76;27724;-59
2021/05/04 14:27:47;;;;;;;4.28;1.98;;;;;;;18.64;33.47;99064.76;2268863;78;34434;-60
2021/05/04 14:31:08;;;;;;;5.08;2.17;;;;;;;18.59;33.05;99073.90;2267376;78;27826;-60
2021/05/04 14:34:42;;;;;;;25.27;18.62;;;;;;;18.55;33.13;99071.15;2259756;78;27664;-59
2021/05/04 14:38:15;;;;;;;4.47;3.30;;;;;;;18.52;32.83;99077.23;2270518;78;28829;-60
2021/05/04 14:41:50;;;;;;;4.03;2.62;;;;;;;18.55;32.81;99083.36;2340433;74;27740;-60
2021/05/04 14:58:45;;;;;;;;;;;;;;;18.43;33.55;99065.12;1976673;85;28050;-61
2021/05/04 15:01:58;;;;;;;5.72;2.65;;;;;;;18.30;33.19;99068.23;1980353;89;27803;-62
2021/05/04 15:05:16;;;;;;;5.35;2.58;;;;;;;18.17;33.02;99070.84;1950941;89;30214;-61
2021/05/04 15:08:41;;;;;;;3.92;2.12;;;;;;;18.16;33.77;99066.95;1908061;92;27912;-62
2021/05/04 15:11:49;;;;;;;4.03;2.45;;;;;;;18.15;33.99;99065.23;1918376;92;33156;-61
2021/05/04 15:14:55;;;;;;;4.17;2.72;;;;;;;18.14;33.91;99055.41;1918178;92;29739;-62
2021/05/04 15:18:18;;;;;;;8.45;5.83;;;;;;;18.18;34.06;99048.67;2077437;84;27763;-61
2021/05/04 15:24:57;;;;;;;6.45;2.85;;;;;;;18.29;34.32;99044.34;2082767;85;27801;-62
2021/05/04 15:28:22;;;;;;;4.72;3.10;;;;;;;18.34;34.13;99035.73;2079330;85;28027;-63
2021/05/04 15:32:23;;;;;;;5.83;3.02;;;;;;;18.45;34.43;99016.48;2371873;74;28107;-61
2021/05/04 15:43:37;;;;;;;5.95;2.87;;;;;;;18.70;35.00;98995.48;2397863;74;27265;-62
2021/05/04 15:47:24;;;;;;;;;;;;;;;;;;;;;
2021/05/04 15:50:52;;;;;;;6.60;2.40;;;;;;;18.68;35.19;98993.77;2186182;79;27823;-61
2021/05/04 16:09:41;;;;;;;;;;;;;;;;;;;;;
2021/05/04 16:12:59;;;;;;;16.00;6.15;;;;;;;18.32;35.67;98972.19;2223154;78;28256;-62
2021/05/04 16:16:26;;;;;;;15.13;7.33;;;;;;;18.41;36.07;98965.45;2397851;74;27706;-62
2021/05/04 16:19:32;;;;;;;21.57;17.02;;;;;;;18.44;36.25;98974.14;2356402;75;27762;-60
2021/05/04 16:23:04;;;;;;;54.93;38.30;;;;;;;18.43;35.84;98963.43;2356258;75;28986;-60
2021/05/04 16:33:09;;;;;;;19.65;11.20;;;;;;;18.17;35.98;98963.77;2264520;78;28155;-61
2021/05/04 16:36:14;;;;;;;16.93;11.40;;;;;;;18.09;36.63;98965.57;2293951;77;29234;-62
2021/05/04 16:39:31;;;;;;;16.65;7.87;;;;;;;18.02;36.85;98965.35;2288749;77;31113;-63
2021/05/04 16:46:53;;;;;;;11.20;4.92;;;;;;;17.83;37.16;98959.07;2286304;77;32383;-63
2021/05/04 16:49:51;;;;;;;11.08;5.22;;;;;;;17.61;37.45;98963.11;2259327;78;27740;-60